Nearby METAR Reports

 

KVSF - Springfield, Vermont, USA
Distance from station: WNW 17mi, 27km
Updated: Mon, Jul-23-2018 9:18am EDT
Light rain, Mist, Overcast
Light rain, Mist, Overcast
 Wind from SE
Wind: SE 7 mph , 11 km/h
Temperature: 75°F , 24°C
Dew Point: 73°F , 23°C
Humidity: 94%
Barometer: 30.20 inHg , 1022.7 hPa
Summary: Light rain, Mist
Clouds: Overcast
Visibility: 1 3/4 miles , 2.8 km
Cloud details: Few Clouds 1100 ft
Mostly cloudy 1900 ft
Overcast 2700 ft
2018/07/23 13:18 KVSF 231318Z AUTO 13006KT 1 3/4SM -RA BR FEW011 BKN019 OVC027 24/23 A3020 RMK AO2 RAB16 P0006 T02390228
KLEB - Lebanon, New Hampshire, USA
Distance from station: NNW 24mi, 39km
Updated: Mon, Jul-23-2018 9:18am EDT
Overcast
Overcast
 Wind from calm
Wind: Calm
Temperature: 79°F , 26°C
Dew Point: 72°F , 22°C
Humidity: 79%
Barometer: 30.19 inHg , 1022.4 hPa
Clouds: Overcast
Visibility: 10 miles , 16 km
Cloud details: Few Clouds 200 ft
Mostly cloudy 4500 ft
Overcast 6000 ft
2018/07/23 13:18 KLEB 231318Z 00000KT 10SM FEW002 BKN045 OVC060 26/22 A3019 RMK AO2 RAE00 P0000 T02560222
 
KEEN - Keene/Dillant, New Hampshire, USA
Distance from station: S 28mi, 45km
Updated: Mon, Jul-23-2018 9:18am EDT
Overcast
Overcast
 Wind from varies
Wind: varies 5 mph , 7 km/h
Temperature: 77°F , 25°C
Dew Point: 73°F , 23°C
Humidity: 89%
Barometer: 30.19 inHg , 1022.4 hPa
Clouds: Overcast
Visibility: 9 miles , 14 km
Cloud details: Few Clouds 1800 ft
Mostly cloudy 2900 ft
Overcast 6000 ft
2018/07/23 13:18 KEEN 231318Z AUTO VRB04KT 9SM FEW018 BKN029 OVC060 25/23 A3019 RMK AO2
KAFN - Jaffrey, New Hampshire, USA
Distance from station: SSE 35mi, 57km
Updated: Mon, Jul-23-2018 9:23am EDT
Overcast
Overcast
 Wind from SSE
Wind: SSE 7 mph , 11 km/h
Temperature: 75°F , 24°C
Dew Point: 73°F , 23°C
Humidity: 94%
Barometer: 30.23 inHg , 1023.7 hPa
Clouds: Overcast
Visibility: 10 miles , 16 km
Cloud details: Few Clouds 900 ft
Mostly cloudy 1400 ft
Overcast 2900 ft
2018/07/23 13:23 KAFN 231323Z AUTO 15006KT 10SM FEW009 BKN014 OVC029 24/23 A3023 RMK AO2 RAE20 P0001 T02390228
 
KCON - Concord, New Hampshire, USA
Distance from station: E 35mi, 57km
Updated: Mon, Jul-23-2018 8:51am EDT
Overcast
Overcast
 Wind from SE
Wind: SE 7 mph , 11 km/h
Temperature: 75°F , 24°C
Dew Point: 73°F , 23°C
Humidity: 94%
Barometer: 30.21 inHg , 1023 hPa
Clouds: Overcast
Visibility: 10 miles , 16 km
Cloud details: Mostly cloudy 1200 ft
Mostly cloudy 1900 ft
Overcast 2500 ft
2018/07/23 12:51 KCON 231251Z AUTO 14006KT 10SM BKN012 BKN019 OVC025 24/23 A3021 RMK AO2 RAE10 SLP230 P0000 T02440228
K1P1 - Plymouth, New Hampshire, USA
Distance from station: NNE 41mi, 66km
Updated: Mon, Jul-23-2018 9:35am EDT
Light rain, Overcast
Light rain, Overcast
 Wind from E
Wind: E 5 mph , 7 km/h
Temperature: 73°F , 23°C
Dew Point: 72°F , 22°C
Humidity: 94%
Barometer: 30.22 inHg , 1023.4 hPa
Summary: Light rain
Clouds: Overcast
Visibility: 4 miles , 6 km
Cloud details: Mostly cloudy 1500 ft
Overcast 2000 ft
2018/07/23 13:35 K1P1 231335Z AUTO 08004KT 4SM -RA BKN015 OVC020 23/22 A3022 RMK AO2 P0002 T02250215
 
KRUT - Rutland State, Vermont, USA
Distance from station: WNW 41mi, 66km
Updated: Mon, Jul-23-2018 8:56am EDT
Partly cloudy
Partly cloudy
 Wind from S
Wind: S 6 mph , 9 km/h
Temperature: 75°F , 24°C
Dew Point: 72°F , 22°C
Humidity: 89%
Barometer: 30.17 inHg , 1021.7 hPa
Clouds: Partly cloudy
Visibility: 10 miles , 16 km
Cloud details: Few Clouds 2000 ft
Partly cloudy 9500 ft
2018/07/23 12:56 KRUT 231256Z AUTO 17005KT 10SM FEW020 SCT095 24/22 A3017 RMK AO2 RAE02B25E39 SLP223 P0000 T02440222 $
KLCI - Laconia Muni, New Hampshire, USA
Distance from station: ENE 44mi, 70km
Updated: Mon, Jul-23-2018 8:56am EDT
Overcast
Overcast
 Wind from varies
Wind: varies 5 mph , 7 km/h
Temperature: 75°F , 24°C
Dew Point: 72°F , 22°C
Humidity: 89%
Barometer: 30.23 inHg , 1023.7 hPa
Clouds: Overcast
Visibility: 10 miles , 16 km
Cloud details: Partly cloudy 1200 ft
Overcast 1800 ft
2018/07/23 12:56 KLCI 231256Z AUTO VRB04KT 10SM SCT012 OVC018 24/22 A3023 RMK AO2 RAE07 SLP249 P0000 T02390222
 
KMHT - Manchester, New Hampshire, USA
Distance from station: ESE 46mi, 73km
Updated: Mon, Jul-23-2018 8:53am EDT
Overcast
Overcast
 Wind from SSE
Wind: SSE 12 mph , 19 km/h
Temperature: 75°F , 24°C
Dew Point: 73°F , 23°C
Humidity: 94%
Barometer: 30.20 inHg , 1022.7 hPa
Clouds: Overcast
Visibility: 10 miles , 16 km
Cloud details: Overcast 1200 ft
2018/07/23 12:53 KMHT 231253Z 15010KT 10SM OVC012 24/23 A3020 RMK AO2 SLP235 T02440228
KASH - Nashua/Boire Fld, New Hampshire, USA
Distance from station: SE 49mi, 79km
Updated: Mon, Jul-23-2018 8:56am EDT
Mist, Overcast
Mist, Overcast
 Wind from SE
Wind: SE 7 mph , 11 km/h
Temperature: 75°F , 24°C
Dew Point: 75°F , 24°C
Humidity: 100%
Barometer: 30.21 inHg , 1023 hPa
Summary: Mist
Clouds: Overcast
Visibility: 6 miles , 10 km
Cloud details: Mostly cloudy 900 ft
Overcast 1300 ft
2018/07/23 12:56 KASH 231256Z 13006KT 6SM BR BKN009 OVC013 24/24 A3021 RMK AO2 RAB23E41 CIG 006V012 SLP238 P0000 T02390239
 
KORE - Orange, Massachusetts, USA
Distance from station: S 50mi, 81km
Updated: Mon, Jul-23-2018 9:02am EDT
Light rain, Overcast
Light rain, Overcast
 Wind from SSE
Wind: SSE 8 mph , 13 km/h
Temperature: 77°F , 25°C
Dew Point: 73°F , 23°C
Humidity: 89%
Barometer: 30.19 inHg , 1022.4 hPa
Summary: Light rain
Clouds: Overcast
Visibility: 8 miles , 13 km
Cloud details: Mostly cloudy 1600 ft
Overcast 2400 ft
2018/07/23 13:02 KORE 231302Z AUTO 15007KT 8SM -RA BKN016 OVC024 25/23 A3019 RMK AO2 P0000 T02500228